Terminal Aerodrome Forecast
Issued by NWS

Home | Current Version | Previous Version | Text Only | Print | Product List | Glossary On
Versions: 1 2 3 4 5 6 7 8 9 10 11 12 13 14
615
FTUS45 KPSR 201735
TAFIPL
TAF
KIPL 201735Z 2018/2118 26015G25KT P6SM BKN250
     FM202100 26025G35KT P6SM SCT250
      TEMPO 2021/2101 3SM BLDU
     FM210300 27015G22KT P6SM FEW250
     FM210900 27010KT P6SM FEW250=

USA.gov is the U.S. government's official web portal to all federal, state and local government web resources and services.